Campo Quijano, Argentina
Current Conditions -  °F | °C
As of 7:20 PM on Thursday 18 Dec 2014 (Local Time) from SASA Reporting Station
Light Rain Light Rain  
Wind Chill: 68°   Ceiling: 1200
Heat Index: 68°   Visibility: 2.5mi
Dew Point: 61°   Wind: 8mph
Humidity: 78%   Direction: 180°S
Pressure: 30"   Gusts: NA
Location:  24.92°S, 65.65°W
Report Text: SASA 182220Z 18007KT 4000 -RA SCT007 BKN012OVC025 20/16 Q1016
Loading
Personal Weather Stations






























Interactive Weather Map New forecast layout! Learn more

10-Day Weather Forecast

Advertisements
Track Severe Weather on mobile